createdAt,value
2023-03-23T15:58:44.135Z,20.23
2023-03-23T16:01:31.579Z,25.27
2023-03-23T16:04:07.877Z,26.27
2023-03-23T16:06:35.738Z,16.53
2023-03-23T16:09:04.534Z,22.90
2023-03-23T16:11:33.647Z,22.17
2023-03-23T16:14:01.928Z,22.17
2023-03-23T16:16:34.594Z,19.63
2023-03-23T16:19:02.192Z,22.50
2023-03-23T16:21:29.094Z,18.57
2023-03-23T16:23:57.058Z,23.43
2023-03-23T16:26:25.112Z,15.30
2023-03-23T16:29:06.083Z,16.07
2023-03-23T16:31:41.741Z,18.03
2023-03-23T16:34:10.275Z,28.60
2023-03-23T16:36:41.229Z,27.83
2023-03-23T16:39:12.371Z,18.73
2023-03-23T16:41:39.324Z,23.47
2023-03-23T16:44:07.066Z,33.60
2023-03-23T16:46:33.824Z,23.13
2023-03-23T16:49:00.610Z,18.20
2023-03-23T16:51:27.602Z,17.07
2023-03-23T16:53:54.402Z,30.97
2023-03-23T16:56:21.191Z,19.80
2023-03-23T16:58:48.293Z,18.87
2023-03-23T17:01:16.122Z,20.87
2023-03-23T17:03:43.929Z,31.10
2023-03-23T17:06:11.204Z,20.70
2023-03-23T17:08:38.068Z,24.57
2023-03-23T17:11:05.044Z,25.37
2023-03-23T17:13:31.729Z,22.17
2023-03-23T17:16:01.094Z,28.87
2023-03-23T17:18:30.175Z,22.37
2023-03-23T17:20:57.118Z,22.60
2023-03-23T17:23:24.492Z,19.13
2023-03-23T17:25:51.780Z,21.53
2023-03-23T17:28:20.422Z,28.13
2023-03-23T17:30:48.508Z,21.30
2023-03-23T17:33:15.468Z,20.40
2023-03-23T17:35:43.075Z,18.37
2023-03-23T17:38:10.059Z,23.60
2023-03-23T17:40:37.051Z,25.87
2023-03-23T17:43:04.295Z,23.40
2023-03-23T17:45:34.091Z,23.80
2023-03-23T17:48:01.413Z,21.83
2023-03-23T17:50:28.795Z,24.63
2023-03-23T17:52:58.016Z,23.80
2023-03-23T17:55:25.456Z,25.23
2023-03-23T17:57:53.213Z,17.47
2023-03-23T18:00:22.195Z,34.13
2023-03-23T18:02:49.419Z,28.67
2023-03-23T18:05:17.433Z,24.60
2023-03-23T18:07:46.717Z,21.17
2023-03-23T18:10:29.285Z,19.93
2023-03-23T18:12:56.805Z,33.37
2023-03-23T18:15:28.115Z,18.97
2023-03-23T18:17:56.953Z,21.53
2023-03-23T18:20:23.840Z,26.40
2023-03-23T18:22:54.202Z,18.97
2023-03-23T18:28:04.510Z,24.43
2023-03-23T18:30:34.036Z,24.33
2023-03-23T18:33:01.291Z,25.23
2023-03-23T18:35:28.048Z,19.33
2023-03-23T18:37:54.864Z,22.43
2023-03-23T18:40:21.970Z,21.43
2023-03-23T18:42:49.163Z,20.97
2023-03-23T18:45:16.109Z,18.67
2023-03-23T18:47:43.547Z,26.40
2023-03-23T18:50:13.887Z,20.37
2023-03-23T18:52:45.379Z,27.60
2023-03-23T18:55:12.130Z,21.77
2023-03-23T18:57:41.777Z,21.57
2023-03-23T19:00:10.058Z,22.73
2023-03-23T19:02:39.569Z,25.10
2023-03-23T19:05:07.702Z,22.17
2023-03-23T19:07:35.249Z,21.63
2023-03-23T19:10:01.989Z,18.00
2023-03-23T19:12:28.687Z,27.17
2023-03-23T19:14:55.568Z,24.40
2023-03-23T19:17:23.464Z,26.80
2023-03-23T19:19:50.130Z,20.97
2023-03-23T19:22:17.206Z,26.23
2023-03-23T19:24:43.984Z,14.73
2023-03-23T19:27:11.100Z,20.40
2023-03-23T19:29:37.954Z,21.07
2023-03-23T19:32:05.053Z,17.03
2023-03-23T19:34:32.460Z,15.70
2023-03-23T19:37:05.527Z,20.63
2023-03-23T19:39:33.994Z,18.97
2023-03-23T19:42:00.895Z,26.10
2023-03-23T19:44:28.873Z,21.93
2023-03-23T19:46:56.271Z,23.37
2023-03-23T19:49:24.566Z,14.50
2023-03-23T19:51:52.647Z,22.17
2023-03-23T19:54:36.545Z,24.23
2023-03-23T19:57:03.787Z,17.67
2023-03-23T19:59:30.610Z,16.27
2023-03-23T20:01:57.574Z,14.47
2023-03-23T20:04:24.991Z,14.80
2023-03-23T20:06:53.768Z,17.67
2023-03-23T20:09:20.699Z,12.07
2023-03-23T20:11:47.475Z,13.40
2023-03-23T20:14:14.157Z,13.50
2023-03-23T20:16:40.841Z,23.10
2023-03-23T20:19:08.756Z,14.80
2023-03-23T20:21:35.486Z,12.37
2023-03-23T20:24:02.234Z,13.83
2023-03-23T20:26:37.373Z,12.20
2023-03-23T20:29:04.788Z,11.30
2023-03-23T20:31:41.770Z,7.57
2023-03-23T20:34:11.896Z,14.57
2023-03-23T20:36:43.652Z,13.43
2023-03-23T20:39:15.216Z,9.57
2023-03-23T20:41:43.652Z,9.47
2023-03-23T20:44:16.120Z,9.77
2023-03-23T20:46:44.206Z,8.60
2023-03-23T20:49:11.509Z,9.73
2023-03-23T20:51:40.221Z,5.93
2023-03-23T20:54:07.576Z,9.90
2023-03-23T20:56:34.912Z,11.30
2023-03-23T20:59:02.455Z,9.97
2023-03-23T21:01:29.869Z,9.67
2023-03-23T21:03:57.927Z,10.77
2023-03-23T21:06:28.495Z,10.60
2023-03-23T21:08:57.040Z,7.37
2023-03-23T21:11:25.607Z,11.30
2023-03-23T21:13:52.646Z,11.43
2023-03-23T21:16:21.422Z,8.77
2023-03-23T21:18:48.246Z,7.67
2023-03-23T21:21:18.341Z,10.27
2023-03-23T21:23:47.575Z,7.67
2023-03-23T21:26:17.208Z,8.40
2023-03-23T21:28:45.132Z,10.20
2023-03-23T21:31:12.693Z,8.93
2023-03-23T21:33:39.858Z,9.33
2023-03-23T21:36:07.583Z,6.07
2023-03-23T21:38:34.444Z,11.13
2023-03-23T21:41:09.742Z,11.30
2023-03-23T21:43:37.137Z,10.13
2023-03-23T21:46:06.031Z,10.57
2023-03-23T21:48:35.743Z,10.23
2023-03-23T21:51:07.834Z,7.33
2023-03-23T21:53:37.385Z,7.93
2023-03-23T21:56:06.602Z,7.30
2023-03-23T21:58:33.847Z,5.00
2023-03-23T22:01:01.283Z,6.93
2023-03-23T22:03:32.610Z,8.10
2023-03-23T22:06:09.133Z,6.30
2023-03-23T22:08:37.463Z,6.70
2023-03-23T22:11:20.295Z,4.70
2023-03-23T22:13:49.222Z,13.40
2023-03-23T22:16:18.293Z,7.57
2023-03-23T22:18:47.707Z,8.20
2023-03-23T22:21:16.427Z,9.70
2023-03-23T22:23:44.532Z,8.63
2023-03-23T22:26:16.555Z,10.30
2023-03-23T22:28:45.767Z,9.10
2023-03-23T22:31:17.574Z,9.33
2023-03-23T22:33:46.158Z,7.03
2023-03-23T22:36:13.136Z,9.20
2023-03-23T22:38:43.142Z,8.70
2023-03-23T22:41:15.954Z,10.13
2023-03-23T22:43:42.715Z,8.70
2023-03-23T22:46:09.453Z,6.83
2023-03-23T22:48:36.630Z,8.80
2023-03-23T22:51:03.832Z,12.17
2023-03-23T22:53:31.292Z,12.23
2023-03-23T22:55:58.658Z,9.40
2023-03-23T22:58:27.286Z,12.93
2023-03-23T23:01:04.297Z,11.97
2023-03-23T23:03:32.876Z,8.93
2023-03-23T23:06:00.762Z,12.20
2023-03-23T23:08:30.288Z,10.83
2023-03-23T23:10:59.186Z,12.87
2023-03-23T23:13:26.660Z,10.63
2023-03-23T23:15:56.907Z,11.07
2023-03-23T23:18:25.414Z,9.90
2023-03-23T23:20:56.790Z,13.23
2023-03-23T23:23:24.758Z,14.67
2023-03-23T23:25:52.229Z,9.03
2023-03-23T23:28:20.326Z,9.63
2023-03-23T23:30:48.177Z,11.23
2023-03-23T23:33:15.530Z,15.83
2023-03-23T23:35:42.665Z,12.67
2023-03-23T23:38:10.562Z,15.33
2023-03-23T23:40:37.720Z,15.03
2023-03-23T23:43:05.496Z,14.27
2023-03-23T23:45:32.462Z,11.80
2023-03-23T23:47:59.931Z,16.07
2023-03-23T23:50:27.406Z,16.07
2023-03-23T23:52:54.442Z,16.87
2023-03-23T23:55:21.985Z,15.87
2023-03-23T23:57:49.677Z,16.03
